Time;durP1;ratioP1;P1;durP2;ratioP2;P2;SDS_P1;SDS_P2;PMS_P1;PMS_P2;Temp;Humidity;BMP_temperature;BMP_pressure;BME280_temperature;BME280_humidity;BME280_pressure;Samples;Min_cycle;Max_cycle;Signal;HPM_P1;HPM_P2
2020/12/16 00:02:00;;;;;;;16.13;12.68;;;;;;;7.80;66.36;100748.25;5041328;28;20038;-72
2020/12/16 00:04:25;;;;;;;18.58;10.90;;;;;;;7.86;65.74;100750.97;5042849;28;20045;-72
2020/12/16 00:06:50;;;;;;;15.48;11.38;;;;;;;7.94;65.92;100755.38;5042150;28;20037;-72
2020/12/16 00:09:16;;;;;;;18.17;11.10;;;;;;;7.99;65.48;100748.41;5014194;28;20036;-72
2020/12/16 00:11:41;;;;;;;16.52;11.57;;;;;;;8.02;65.34;100753.72;5038506;28;20110;-72
2020/12/16 00:14:06;;;;;;;17.55;11.93;;;;;;;8.03;65.68;100758.09;5039893;28;20081;-72
2020/12/16 00:16:32;;;;;;;15.13;10.88;;;;;;;8.07;65.16;100759.88;5039579;28;20075;-72
2020/12/16 00:18:58;;;;;;;17.10;12.07;;;;;;;8.06;65.55;100764.25;5040679;28;20111;-72
2020/12/16 00:21:24;;;;;;;16.08;11.35;;;;;;;8.05;65.28;100767.75;5042800;28;20060;-71
2020/12/16 00:23:49;;;;;;;16.55;11.80;;;;;;;8.09;65.49;100768.66;5042389;28;20044;-72
2020/12/16 00:26:14;;;;;;;18.48;12.70;;;;;;;8.09;65.85;100774.78;5039340;28;20519;-72
2020/12/16 00:28:41;;;;;;;19.58;13.15;;;;;;;8.12;65.67;100779.19;5017179;28;20042;-72
2020/12/16 00:31:07;;;;;;;18.73;13.00;;;;;;;8.01;66.12;100772.97;5039209;28;20510;-72
2020/12/16 00:33:33;;;;;;;16.88;11.57;;;;;;;7.95;66.07;100783.44;5038864;28;20037;-72
2020/12/16 00:35:58;;;;;;;17.50;12.55;;;;;;;7.98;66.43;100773.81;5046066;28;20040;-72
2020/12/16 00:38:24;;;;;;;18.90;13.10;;;;;;;7.98;66.06;100780.81;5069651;28;20047;-72
2020/12/16 00:40:49;;;;;;;17.52;12.40;;;;;;;8.00;66.06;100779.09;5045853;28;20037;-72
2020/12/16 00:43:14;;;;;;;17.00;11.25;;;;;;;8.02;66.30;100791.38;5042343;28;20120;-72
2020/12/16 00:45:40;;;;;;;18.88;13.63;;;;;;;8.07;66.25;100794.06;5042723;28;20048;-72
2020/12/16 00:48:05;;;;;;;16.30;11.32;;;;;;;8.03;66.35;100795.75;5022354;28;20033;-72
2020/12/16 00:50:31;;;;;;;17.23;11.75;;;;;;;7.95;66.55;100793.94;5060874;28;20032;-72
2020/12/16 00:53:00;;;;;;;17.85;10.77;;;;;;;7.97;66.73;100800.09;5040292;28;20061;-72
2020/12/16 00:55:28;;;;;;;18.00;12.63;;;;;;;8.03;66.55;100808.91;5020913;28;20121;-72
2020/12/16 00:57:55;;;;;;;15.20;10.30;;;;;;;8.09;66.68;100808.06;5035218;28;20123;-72
2020/12/16 01:00:21;;;;;;;17.13;11.40;;;;;;;8.13;66.10;100812.50;5038936;28;20033;-72
2020/12/16 01:02:50;;;;;;;17.00;11.18;;;;;;;8.07;66.14;100813.34;5021276;28;20033;-72
2020/12/16 01:05:21;;;;;;;18.92;11.82;;;;;;;8.07;66.59;100815.97;5024677;28;20099;-72
2020/12/16 01:07:47;;;;;;;17.90;11.73;;;;;;;8.11;66.24;100822.13;5024682;28;20040;-72
2020/12/16 01:10:16;;;;;;;14.32;10.23;;;;;;;8.16;66.28;100824.78;5021090;28;20033;-72
2020/12/16 01:12:44;;;;;;;17.33;11.85;;;;;;;8.24;66.42;100820.47;5016707;28;20120;-72
2020/12/16 01:15:13;;;;;;;15.02;10.80;;;;;;;8.28;66.28;100828.41;5021121;28;20040;-72
2020/12/16 01:17:40;;;;;;;16.23;11.30;;;;;;;8.33;66.39;100824.06;5000333;28;20033;-72
2020/12/16 01:20:08;;;;;;;18.17;12.05;;;;;;;8.31;65.80;100822.28;5021093;28;20025;-72
2020/12/16 01:22:44;;;;;;;15.60;11.43;;;;;;;8.28;66.50;100822.28;5015695;28;20528;-72
2020/12/16 01:25:10;;;;;;;15.32;11.13;;;;;;;8.32;66.05;100824.03;5021009;28;20040;-72
2020/12/16 01:27:36;;;;;;;16.73;12.05;;;;;;;8.33;66.31;100821.44;5023494;28;20092;-72
2020/12/16 01:30:07;;;;;;;15.77;10.73;;;;;;;8.39;66.06;100824.97;5039619;28;20029;-72
2020/12/16 01:32:33;;;;;;;16.95;12.13;;;;;;;8.39;65.85;100823.25;5029732;28;20068;-72
2020/12/16 01:35:00;;;;;;;16.35;11.35;;;;;;;8.39;66.03;100822.34;5043704;28;20033;-72
2020/12/16 01:37:27;;;;;;;15.98;12.10;;;;;;;8.32;66.15;100818.78;5027982;28;20040;-72
2020/12/16 01:39:52;;;;;;;16.10;12.23;;;;;;;8.30;65.90;100834.53;5027333;28;20033;-72
2020/12/16 01:42:24;;;;;;;18.08;13.13;;;;;;;8.31;66.34;100831.06;5036270;28;20041;-72
2020/12/16 01:44:50;;;;;;;15.13;10.98;;;;;;;8.35;66.31;100835.47;5069051;28;20407;-72
2020/12/16 01:47:17;;;;;;;17.88;11.68;;;;;;;8.33;66.50;100837.22;5039832;28;20044;-72
2020/12/16 01:49:50;;;;;;;16.63;11.90;;;;;;;8.38;66.56;100839.84;5024350;28;20092;-71
2020/12/16 01:52:20;;;;;;;19.23;11.80;;;;;;;8.38;66.43;100849.50;5011082;28;20029;-72
2020/12/16 01:54:53;;;;;;;17.02;12.00;;;;;;;8.37;66.68;100850.38;5027207;28;20041;-72
2020/12/16 01:57:22;;;;;;;19.65;13.07;;;;;;;8.39;66.56;100848.66;5033350;28;20041;-72
2020/12/16 01:59:55;;;;;;;18.80;12.90;;;;;;;8.43;66.97;100860.97;5023975;28;20037;-72
2020/12/16 02:02:48;;;;;;;17.13;12.73;;;;;;;8.46;66.48;100851.38;5041553;28;20048;-72
2020/12/16 02:05:22;;;;;;;17.77;12.88;;;;;;;8.42;66.43;100851.34;5008400;28;20033;-72
2020/12/16 02:07:52;;;;;;;20.88;12.85;;;;;;;8.46;66.61;100847.84;5041875;28;20065;-72
2020/12/16 02:10:18;;;;;;;18.45;13.38;;;;;;;8.44;66.53;100855.75;5023834;28;20433;-72
2020/12/16 02:12:43;;;;;;;15.70;11.18;;;;;;;8.43;66.97;100843.44;5041197;28;20164;-72
2020/12/16 02:15:09;;;;;;;16.65;11.68;;;;;;;8.37;67.09;100853.00;5039837;28;20459;-72
2020/12/16 02:17:36;;;;;;;18.45;13.48;;;;;;;8.26;67.01;100855.56;5023733;28;20029;-72
2020/12/16 02:20:07;;;;;;;17.85;12.93;;;;;;;8.28;67.51;100854.72;5038793;28;20030;-72
2020/12/16 02:22:37;;;;;;;18.08;12.65;;;;;;;8.29;67.39;100853.81;5023442;28;20128;-72
2020/12/16 02:25:12;;;;;;;14.00;10.27;;;;;;;8.32;67.14;100867.00;5038741;28;20060;-72
2020/12/16 02:27:45;;;;;;;20.17;13.82;;;;;;;8.22;67.45;100859.88;5033592;28;20059;-72
2020/12/16 02:30:18;;;;;;;17.08;11.25;;;;;;;8.15;68.06;100860.72;5024206;28;20033;-72
2020/12/16 02:33:02;;;;;;;15.23;10.90;;;;;;;8.10;67.91;100854.53;5042851;28;20091;-72
2020/12/16 02:35:35;;;;;;;18.50;12.60;;;;;;;8.16;68.30;100858.97;5026690;28;20033;-72
2020/12/16 02:38:10;;;;;;;16.52;11.35;;;;;;;8.18;68.17;100859.88;5007545;28;20034;-72
2020/12/16 02:40:35;;;;;;;14.60;10.40;;;;;;;8.23;68.05;100859.03;5034691;28;20032;-72
2020/12/16 02:43:02;;;;;;;20.05;12.75;;;;;;;8.27;67.80;100860.81;5040816;28;20510;-72
2020/12/16 02:45:28;;;;;;;18.98;13.57;;;;;;;8.33;68.24;100867.88;5041075;28;20029;-72
2020/12/16 02:48:02;;;;;;;20.23;15.00;;;;;;;8.37;68.27;100880.19;5042787;28;20036;-72
2020/12/16 02:50:30;;;;;;;17.52;12.68;;;;;;;8.38;67.60;100873.19;5026432;28;20033;-72
2020/12/16 02:52:55;;;;;;;17.13;12.68;;;;;;;8.40;67.65;100871.47;5025233;28;20044;-72
2020/12/16 02:55:23;;;;;;;15.50;11.23;;;;;;;8.41;67.34;100881.13;5000048;28;20476;-72
2020/12/16 02:58:00;;;;;;;18.55;13.30;;;;;;;8.34;67.59;100881.03;5040961;28;20045;-72
2020/12/16 03:00:26;;;;;;;21.42;15.30;;;;;;;8.34;67.46;100875.78;5016400;28;20037;-72
2020/12/16 03:03:10;;;;;;;18.08;12.93;;;;;;;8.33;67.71;100881.03;5022463;28;20053;-72
2020/12/16 03:05:54;;;;;;;16.13;11.55;;;;;;;8.31;67.60;100881.03;5041551;28;20114;-72
2020/12/16 03:08:35;;;;;;;17.92;12.18;;;;;;;8.32;68.01;100884.53;5026319;28;20559;-72
2020/12/16 03:11:05;;;;;;;17.08;11.65;;;;;;;8.35;68.20;100893.31;5023960;28;20372;-72
2020/12/16 03:13:30;;;;;;;17.25;12.57;;;;;;;8.39;67.62;100894.28;5033175;28;20044;-72
2020/12/16 03:15:56;;;;;;;15.65;10.98;;;;;;;8.38;68.17;100888.97;5040481;28;20044;-72
2020/12/16 03:18:23;;;;;;;15.50;10.80;;;;;;;8.31;67.93;100896.81;5032349;28;20037;-72
2020/12/16 03:20:53;;;;;;;18.83;13.48;;;;;;;8.32;68.07;100898.56;5022503;28;20040;-72
2020/12/16 03:23:19;;;;;;;17.27;11.65;;;;;;;8.29;68.17;100902.91;5031753;28;20408;-72
2020/12/16 03:26:07;;;;;;;18.00;13.13;;;;;;;8.27;68.85;100902.00;5039766;28;20033;-72
2020/12/16 03:28:49;;;;;;;14.85;11.30;;;;;;;8.30;68.53;100900.28;5035817;28;20033;-72
2020/12/16 03:31:34;;;;;;;18.13;12.50;;;;;;;8.27;68.45;100905.53;5038965;28;20492;-72
2020/12/16 03:34:19;;;;;;;18.75;14.05;;;;;;;8.29;68.67;100900.28;5039749;28;20057;-72
2020/12/16 03:36:55;;;;;;;22.10;15.30;;;;;;;8.30;68.27;100905.53;5036562;28;20504;-72
2020/12/16 03:39:21;;;;;;;18.95;14.13;;;;;;;8.34;68.10;100902.09;5022301;28;20060;-72
2020/12/16 03:41:49;;;;;;;18.52;14.48;;;;;;;8.36;68.19;100904.75;5033191;28;20490;-72
2020/12/16 03:44:15;;;;;;;17.13;12.52;;;;;;;8.35;68.46;100909.09;5048406;28;20032;-72
2020/12/16 03:46:51;;;;;;;14.95;10.50;;;;;;;8.34;68.58;100909.97;5025418;28;20067;-72
2020/12/16 03:49:18;;;;;;;13.63;9.80;;;;;;;8.38;68.40;100916.13;5021946;28;20463;-72
2020/12/16 03:51:45;;;;;;;15.25;11.05;;;;;;;8.46;68.51;100908.34;5026085;28;20036;-72
2020/12/16 03:54:11;;;;;;;16.58;11.38;;;;;;;8.45;67.94;100917.13;5025112;28;20162;-72
2020/12/16 03:57:00;;;;;;;16.17;11.63;;;;;;;8.44;68.12;100920.63;5040792;28;20045;-72
2020/12/16 03:59:48;;;;;;;17.52;12.30;;;;;;;8.46;68.55;100924.13;5034923;28;20083;-72
2020/12/16 04:02:23;;;;;;;18.75;12.70;;;;;;;8.47;68.60;100921.53;5028595;28;20041;-72
2020/12/16 04:05:01;;;;;;;18.85;13.45;;;;;;;8.52;67.94;100916.31;5036878;28;20045;-72
2020/12/16 04:07:28;;;;;;;18.40;13.07;;;;;;;8.50;68.45;100918.91;5039595;28;20037;-72
2020/12/16 04:10:04;;;;;;;19.70;13.52;;;;;;;8.46;68.20;100924.13;5026971;28;20543;-72
2020/12/16 04:12:29;;;;;;;20.30;14.45;;;;;;;8.47;68.08;100923.28;5051873;28;20111;-72
2020/12/16 04:14:55;;;;;;;18.92;13.90;;;;;;;8.46;69.14;100932.03;5033355;28;20515;-72
2020/12/16 04:17:20;;;;;;;15.93;11.73;;;;;;;8.49;68.70;100929.44;5025111;28;20036;-72
2020/12/16 04:20:06;;;;;;;18.95;13.50;;;;;;;8.51;68.49;100930.31;5022412;28;20029;-72
2020/12/16 04:22:35;;;;;;;17.85;12.60;;;;;;;8.53;68.65;100923.31;5021335;28;20059;-72
2020/12/16 04:25:04;;;;;;;16.70;12.88;;;;;;;8.55;68.21;100934.75;5036855;28;20067;-72
2020/12/16 04:27:32;;;;;;;20.75;14.25;;;;;;;8.53;68.87;100929.44;5021673;28;20120;-72
2020/12/16 04:29:58;;;;;;;16.90;12.18;;;;;;;8.55;68.32;100937.38;5035995;28;20029;-72
2020/12/16 04:32:26;;;;;;;19.83;12.82;;;;;;;8.55;68.64;100942.63;5038910;28;20074;-72
2020/12/16 04:34:51;;;;;;;18.58;13.20;;;;;;;8.53;68.36;100944.38;5048565;28;20069;-72
2020/12/16 04:37:17;;;;;;;20.73;14.57;;;;;;;8.47;68.34;100939.94;5029711;28;20041;-72
2020/12/16 04:39:49;;;;;;;19.48;14.52;;;;;;;8.42;68.75;100939.00;5021344;28;20159;-72
2020/12/16 04:42:16;;;;;;;19.92;14.77;;;;;;;8.51;68.58;100940.84;5029780;28;20044;-72
2020/12/16 04:44:42;;;;;;;14.45;11.68;;;;;;;8.56;68.48;100944.38;5020658;28;20422;-72
2020/12/16 04:47:13;;;;;;;15.38;11.25;;;;;;;8.57;68.30;100951.44;5021585;28;20033;-72
2020/12/16 04:49:44;;;;;;;15.50;11.60;;;;;;;8.59;68.45;100949.66;5017692;28;20057;-72
2020/12/16 04:52:11;;;;;;;16.17;12.02;;;;;;;8.55;68.49;100953.16;5037732;28;20159;-72
2020/12/16 04:54:54;;;;;;;16.93;12.77;;;;;;;8.57;68.41;100951.44;5035304;28;20068;-72
2020/12/16 04:57:24;;;;;;;17.05;11.20;;;;;;;8.57;68.98;100956.69;5028231;28;20280;-72
2020/12/16 04:59:55;;;;;;;16.08;11.18;;;;;;;8.60;68.62;100961.97;5034799;28;20095;-72
2020/12/16 05:02:49;;;;;;;15.10;10.60;;;;;;;8.62;68.12;100961.97;5041456;28;20136;-72
2020/12/16 05:05:35;;;;;;;17.10;11.52;;;;;;;8.63;67.68;100964.63;5028236;28;20079;-72
2020/12/16 05:08:10;;;;;;;17.17;11.55;;;;;;;8.56;68.59;100960.16;5044142;28;20064;-72
2020/12/16 05:10:39;;;;;;;15.93;12.18;;;;;;;8.56;68.95;100971.56;5046289;28;20044;-71
2020/12/16 05:13:06;;;;;;;17.58;11.98;;;;;;;8.63;68.18;100972.53;5025626;28;20060;-72
2020/12/16 05:15:32;;;;;;;18.38;12.63;;;;;;;8.63;68.05;100971.66;5035988;28;20048;-72
2020/12/16 05:18:15;;;;;;;18.90;13.27;;;;;;;8.56;67.94;100970.69;5042825;28;20036;-72
2020/12/16 05:20:44;;;;;;;17.73;12.52;;;;;;;8.57;68.58;100967.22;5052854;28;20051;-70
2020/12/16 05:23:10;;;;;;;17.88;11.88;;;;;;;8.59;68.70;100970.72;5062877;28;20124;-70
2020/12/16 05:25:36;;;;;;;16.50;12.07;;;;;;;8.67;68.32;100970.78;5071263;28;20046;-70
2020/12/16 05:28:02;;;;;;;28.90;20.48;;;;;;;8.71;67.76;100976.09;5061991;28;20040;-70
2020/12/16 05:30:28;;;;;;;24.15;16.77;;;;;;;8.74;67.93;100985.78;5042725;28;20040;-70
2020/12/16 05:32:54;;;;;;;18.05;14.60;;;;;;;8.74;67.98;100991.91;5042661;28;20496;-70
2020/12/16 05:35:25;;;;;;;17.33;12.73;;;;;;;8.76;67.63;100982.28;5045800;28;20046;-70
2020/12/16 05:37:51;;;;;;;15.43;11.80;;;;;;;8.76;68.01;100986.66;5045663;28;20037;-70
2020/12/16 05:40:22;;;;;;;17.73;12.43;;;;;;;8.77;67.83;100983.16;5042198;28;20056;-70
2020/12/16 05:42:49;;;;;;;16.33;12.27;;;;;;;8.73;67.54;100992.78;5042083;28;20037;-70
2020/12/16 05:45:20;;;;;;;17.17;12.82;;;;;;;8.75;67.35;100992.78;5042330;28;20033;-70
2020/12/16 05:47:58;;;;;;;18.40;13.30;;;;;;;8.70;67.17;100995.41;5042237;28;20102;-71
2020/12/16 05:50:24;;;;;;;17.30;12.70;;;;;;;8.71;67.39;100997.16;5041933;28;20075;-70
2020/12/16 05:52:50;;;;;;;18.70;13.48;;;;;;;8.74;67.45;100999.81;5041615;28;20063;-70
2020/12/16 05:55:27;;;;;;;18.77;14.48;;;;;;;8.66;67.32;101003.25;5045395;28;20025;-70
2020/12/16 05:58:14;;;;;;;26.98;17.45;;;;;;;8.64;67.54;101012.88;5040456;28;20033;-70
2020/12/16 06:00:59;;;;;;;22.05;15.32;;;;;;;8.63;67.63;101014.63;5055771;28;20494;-70
2020/12/16 06:03:30;;;;;;;20.60;14.20;;;;;;;8.63;68.13;101019.88;5063778;28;20111;-70
2020/12/16 06:06:06;;;;;;;20.40;15.88;;;;;;;8.64;67.75;101020.75;5060732;28;20116;-70
2020/12/16 06:08:36;;;;;;;22.02;16.52;;;;;;;8.62;68.04;101020.75;5071637;28;20040;-70
2020/12/16 06:11:03;;;;;;;22.17;15.85;;;;;;;8.64;68.05;101024.25;5046258;28;20083;-70
2020/12/16 06:13:28;;;;;;;20.48;16.38;;;;;;;8.65;67.76;101020.78;5044070;28;20094;-70
2020/12/16 06:15:56;;;;;;;21.65;16.27;;;;;;;8.62;67.78;101023.41;5068761;28;20044;-70
2020/12/16 06:18:27;;;;;;;22.42;15.32;;;;;;;8.59;67.97;101022.47;5056249;28;20037;-70
2020/12/16 06:20:52;;;;;;;22.25;14.82;;;;;;;8.61;68.17;101021.59;5041770;28;20357;-70
2020/12/16 06:23:30;;;;;;;20.73;15.32;;;;;;;8.65;67.74;101023.41;5044583;28;20047;-70
2020/12/16 06:25:57;;;;;;;20.05;14.32;;;;;;;8.69;68.06;101021.69;5044123;28;20037;-70
2020/12/16 06:28:24;;;;;;;21.75;16.85;;;;;;;8.61;67.87;101032.13;5041452;28;20492;-70
2020/12/16 06:31:09;;;;;;;22.42;16.10;;;;;;;8.64;68.23;101026.91;5041262;28;20037;-70
2020/12/16 06:33:41;;;;;;;21.50;14.82;;;;;;;8.73;67.73;101040.16;5040951;28;20538;-70
2020/12/16 06:36:09;;;;;;;20.25;15.48;;;;;;;8.77;67.34;101041.94;5059468;28;20025;-70
2020/12/16 06:38:40;;;;;;;19.30;14.48;;;;;;;8.68;67.59;101039.22;5066052;28;20033;-70
2020/12/16 06:41:10;;;;;;;24.00;17.08;;;;;;;8.70;67.43;101037.50;5057609;28;20038;-70
2020/12/16 06:43:41;;;;;;;25.20;18.35;;;;;;;8.75;67.44;101051.59;5058514;28;20039;-70
2020/12/16 06:46:34;;;;;;;23.02;15.75;;;;;;;8.71;67.34;101034.00;5059350;28;20037;-70
2020/12/16 06:49:03;;;;;;;23.27;16.50;;;;;;;8.71;67.64;101039.25;5059020;28;20044;-70
2020/12/16 06:51:35;;;;;;;20.67;15.30;;;;;;;8.73;67.97;101044.53;5066622;28;20115;-70
2020/12/16 06:54:04;;;;;;;;;;;;;;;8.58;67.67;101049.66;5042981;28;20040;-70
2020/12/16 06:56:30;;;;;;;23.40;16.10;;;;;;;8.60;67.93;101053.19;5040893;28;20016;-70
2020/12/16 06:58:55;;;;;;;23.52;17.85;;;;;;;8.54;68.12;101057.53;5061867;28;20044;-70
2020/12/16 07:01:21;;;;;;;25.27;18.48;;;;;;;8.54;67.86;101048.72;5067369;28;20036;-70
2020/12/16 07:03:46;;;;;;;23.70;17.25;;;;;;;8.61;68.18;101050.56;5043908;28;20036;-70
2020/12/16 07:06:31;;;;;;;27.05;18.80;;;;;;;8.65;67.79;101059.38;5040883;28;20053;-70
2020/12/16 07:09:20;;;;;;;26.73;18.80;;;;;;;8.65;67.69;101060.25;5041486;28;20103;-70
2020/12/16 07:11:47;;;;;;;23.73;17.75;;;;;;;8.69;67.33;101058.53;5043936;28;20395;-70
2020/12/16 07:14:14;;;;;;;27.10;18.70;;;;;;;8.69;67.44;101067.28;5040422;28;20050;-70
2020/12/16 07:16:41;;;;;;;24.70;17.23;;;;;;;8.64;68.00;101061.09;5040192;28;20068;-70
2020/12/16 07:19:06;;;;;;;25.05;18.80;;;;;;;8.60;67.55;101068.97;5040726;28;20025;-70
2020/12/16 07:21:32;;;;;;;28.58;19.38;;;;;;;8.53;67.87;101078.53;5041887;28;20506;-70
2020/12/16 07:24:12;;;;;;;28.73;20.23;;;;;;;8.47;67.89;101078.47;5041446;28;20108;-70
2020/12/16 07:26:46;;;;;;;27.02;19.20;;;;;;;8.50;68.59;101081.13;5059695;28;20044;-70
2020/12/16 07:29:28;;;;;;;26.23;18.17;;;;;;;8.49;68.24;101085.53;5069907;28;20430;-70
2020/12/16 07:32:03;;;;;;;25.67;18.80;;;;;;;8.50;68.77;101087.28;5046441;28;20112;-70
2020/12/16 07:34:30;;;;;;;30.73;22.90;;;;;;;8.51;68.27;101096.03;5043378;28;20037;-70
2020/12/16 07:37:01;;;;;;;31.77;21.88;;;;;;;8.56;68.57;101096.97;5042796;28;20123;-70
2020/12/16 07:39:28;;;;;;;34.08;25.33;;;;;;;8.55;68.49;101089.97;5040038;28;20037;-70
2020/12/16 07:41:55;;;;;;;28.25;21.20;;;;;;;8.59;67.89;101086.47;5040647;28;20427;-70
2020/12/16 07:44:21;;;;;;;28.00;19.48;;;;;;;8.59;68.14;101086.47;5043123;28;20025;-70
2020/12/16 07:46:46;;;;;;;29.98;19.50;;;;;;;8.53;68.02;101094.31;5043310;28;20063;-70
2020/12/16 07:49:16;;;;;;;28.75;20.02;;;;;;;8.57;67.83;101093.50;5040275;28;20388;-70
2020/12/16 07:51:41;;;;;;;28.33;19.73;;;;;;;8.58;67.90;101105.78;5039782;28;20045;-70
2020/12/16 07:54:07;;;;;;;28.90;20.83;;;;;;;8.53;68.32;101100.47;5041765;28;20033;-70
2020/12/16 07:56:32;;;;;;;26.50;18.90;;;;;;;8.45;68.35;101101.25;5043271;28;20103;-70
2020/12/16 07:59:11;;;;;;;36.10;19.73;;;;;;;8.44;68.25;101107.38;5042016;28;20029;-70
2020/12/16 08:01:37;;;;;;;35.90;25.50;;;;;;;8.46;68.08;101110.88;5039559;28;20033;-70
2020/12/16 08:04:02;;;;;;;29.08;21.80;;;;;;;8.44;68.02;101115.28;5040850;28;20439;-70
2020/12/16 08:06:28;;;;;;;28.85;20.85;;;;;;;8.48;68.28;101112.69;5030397;28;20437;-70
2020/12/16 08:08:53;;;;;;;29.33;19.30;;;;;;;8.56;68.07;101112.75;5065787;28;20085;-70
2020/12/16 08:11:27;;;;;;;28.10;18.92;;;;;;;8.64;67.48;101108.47;5066767;28;20036;-70
2020/12/16 08:14:05;;;;;;;26.83;18.33;;;;;;;8.68;67.81;101107.66;5042326;28;20037;-70
2020/12/16 08:16:31;;;;;;;28.55;20.52;;;;;;;8.75;67.46;101108.56;5039472;28;20112;-70
2020/12/16 08:18:57;;;;;;;30.45;21.38;;;;;;;8.74;67.32;101114.72;5040301;28;20041;-70
2020/12/16 08:21:23;;;;;;;28.30;20.25;;;;;;;8.75;67.53;101114.75;5042838;28;20392;-70
2020/12/16 08:23:53;;;;;;;28.27;19.25;;;;;;;8.83;67.36;101117.47;5042641;28;20033;-70
2020/12/16 08:26:20;;;;;;;29.15;19.30;;;;;;;8.89;66.89;101111.38;5039442;28;20045;-70
2020/12/16 08:28:46;;;;;;;26.52;18.42;;;;;;;8.92;66.89;101111.41;5039337;28;20041;-70
2020/12/16 08:31:15;;;;;;;23.83;17.15;;;;;;;8.96;66.93;101116.72;5042313;28;20047;-70
2020/12/16 08:33:43;;;;;;;29.55;19.27;;;;;;;8.92;67.46;101117.53;5042384;28;20500;-70
2020/12/16 08:36:09;;;;;;;28.30;18.85;;;;;;;8.88;67.44;101120.13;5042049;28;20432;-70
2020/12/16 08:38:43;;;;;;;28.83;20.00;;;;;;;8.84;67.76;101124.47;5046025;28;20446;-71
2020/12/16 08:41:12;;;;;;;24.83;17.77;;;;;;;8.75;67.67;101120.00;5045948;28;20495;-70
2020/12/16 08:43:40;;;;;;;29.23;19.02;;;;;;;8.76;67.92;101121.75;5046563;28;20099;-70
2020/12/16 08:46:23;;;;;;;28.40;20.52;;;;;;;8.76;68.23;101123.53;5044572;28;20486;-70
2020/12/16 08:49:01;;;;;;;27.67;18.88;;;;;;;8.80;67.92;101130.56;5043282;28;20120;-70
2020/12/16 08:51:38;;;;;;;30.80;21.60;;;;;;;8.89;67.33;101127.16;5043466;28;20527;-70
2020/12/16 08:54:11;;;;;;;31.27;20.48;;;;;;;8.94;67.24;101128.09;5044689;28;20041;-70
2020/12/16 08:56:44;;;;;;;31.40;21.70;;;;;;;8.95;67.33;101132.47;5046466;28;20037;-70
2020/12/16 08:59:15;;;;;;;31.38;22.40;;;;;;;8.95;68.27;101135.13;5043802;28;20099;-70
2020/12/16 09:01:52;;;;;;;27.33;20.40;;;;;;;9.01;67.49;101132.53;5042843;28;20037;-70
2020/12/16 09:04:29;;;;;;;25.63;19.13;;;;;;;9.02;67.09;101142.22;5042801;28;20030;-70
2020/12/16 09:07:03;;;;;;;28.67;20.83;;;;;;;8.97;68.05;101131.63;5043544;28;20045;-70
2020/12/16 09:09:28;;;;;;;32.25;22.80;;;;;;;9.01;68.04;101137.81;5046247;28;20045;-70
2020/12/16 09:11:54;;;;;;;28.88;21.65;;;;;;;9.08;67.45;101141.38;5045619;28;20040;-70
2020/12/16 09:14:20;;;;;;;33.10;21.90;;;;;;;8.98;67.38;101143.03;5043484;28;20470;-70
2020/12/16 09:16:46;;;;;;;31.90;21.40;;;;;;;8.84;67.44;101145.53;5068312;28;20170;-70
2020/12/16 09:19:16;;;;;;;31.70;23.13;;;;;;;8.86;67.84;101142.94;5059503;28;20109;-70
2020/12/16 09:21:41;;;;;;;31.58;21.67;;;;;;;8.89;67.71;101141.22;5042659;28;20033;-70
2020/12/16 09:24:07;;;;;;;33.38;21.30;;;;;;;8.91;67.43;101144.75;5044591;28;20030;-70
2020/12/16 09:26:34;;;;;;;32.08;23.20;;;;;;;8.97;67.04;101139.53;5059121;28;20119;-70
2020/12/16 09:28:59;;;;;;;33.05;23.25;;;;;;;9.02;67.04;101136.94;5062925;28;20039;-70
2020/12/16 09:31:24;;;;;;;37.90;24.35;;;;;;;9.08;66.95;101134.38;5064282;28;20032;-70
2020/12/16 09:34:01;;;;;;;34.03;25.73;;;;;;;9.08;66.29;101133.50;5072744;28;20037;-70
2020/12/16 09:36:28;;;;;;;33.83;24.08;;;;;;;9.05;67.03;101136.97;5042452;28;20040;-70
2020/12/16 09:38:55;;;;;;;35.95;24.60;;;;;;;9.11;66.45;101138.78;5042809;28;20520;-70
2020/12/16 09:41:20;;;;;;;31.55;23.10;;;;;;;9.16;66.20;101131.81;5045752;28;20029;-70
2020/12/16 09:43:45;;;;;;;32.22;23.23;;;;;;;9.21;66.62;101130.09;5045460;28;20059;-70
2020/12/16 09:46:19;;;;;;;37.67;24.65;;;;;;;9.26;65.59;101130.16;5042763;28;20452;-70
2020/12/16 09:48:47;;;;;;;30.52;21.38;;;;;;;9.27;66.41;101131.91;5041409;28;20041;-70
2020/12/16 09:51:17;;;;;;;41.38;26.67;;;;;;;9.28;65.81;101124.03;5045097;28;20072;-70
2020/12/16 09:53:43;;;;;;;63.65;39.67;;;;;;;9.39;66.65;101116.22;5045233;28;20041;-70
2020/12/16 09:56:20;;;;;;;63.17;42.83;;;;;;;9.51;66.44;101118.03;5042955;28;20040;-70
2020/12/16 09:58:45;;;;;;;60.70;40.33;;;;;;;9.62;65.62;101119.91;5041921;28;20110;-70
2020/12/16 10:01:11;;;;;;;46.47;31.73;;;;;;;9.71;65.48;101115.56;5044542;28;20707;-70
2020/12/16 10:03:36;;;;;;;41.33;29.15;;;;;;;9.79;65.32;101114.72;5045017;28;20495;-70
2020/12/16 10:06:01;;;;;;;32.72;23.88;;;;;;;9.78;65.33;101109.47;5043655;28;20068;-70
2020/12/16 10:08:27;;;;;;;31.20;22.73;;;;;;;9.77;65.06;101105.03;5041810;28;20080;-70
2020/12/16 10:10:52;;;;;;;33.30;25.00;;;;;;;9.81;65.24;101107.72;5041949;28;20073;-70
2020/12/16 10:13:17;;;;;;;35.72;24.35;;;;;;;9.70;64.51;101108.53;5044712;28;20079;-70
2020/12/16 10:15:43;;;;;;;33.15;22.23;;;;;;;9.59;65.07;101101.44;5044997;28;20068;-70
2020/12/16 10:18:08;;;;;;;34.47;23.60;;;;;;;9.64;65.04;101106.72;5042334;28;20051;-70
2020/12/16 10:20:33;;;;;;;33.92;24.88;;;;;;;9.75;64.75;101102.41;5045898;28;20097;-70
2020/12/16 10:23:00;;;;;;;32.08;21.95;;;;;;;9.83;64.82;101105.09;5059639;28;20041;-70
2020/12/16 10:25:26;;;;;;;32.03;22.13;;;;;;;9.84;64.69;101104.22;5072269;28;20094;-70
2020/12/16 10:27:53;;;;;;;30.60;21.38;;;;;;;9.87;64.35;101113.03;5049020;28;20036;-70
2020/12/16 10:30:18;;;;;;;32.58;23.00;;;;;;;9.84;64.19;101113.00;5055379;28;20043;-70
2020/12/16 10:32:43;;;;;;;34.15;23.75;;;;;;;9.85;64.10;101119.16;5047850;28;20037;-70
2020/12/16 10:35:09;;;;;;;32.28;22.23;;;;;;;9.95;63.93;101110.44;5041804;28;20063;-70
2020/12/16 10:37:35;;;;;;;33.05;23.13;;;;;;;9.88;63.38;101113.94;5041176;28;20439;-70
2020/12/16 10:40:00;;;;;;;32.53;22.90;;;;;;;9.88;64.08;101106.03;5041138;28;20025;-70
2020/12/16 10:42:25;;;;;;;37.15;24.02;;;;;;;9.87;63.82;101113.03;5042460;28;20033;-70
2020/12/16 10:44:51;;;;;;;34.63;24.20;;;;;;;9.94;64.05;101111.31;5042399;28;20495;-70
2020/12/16 10:47:17;;;;;;;34.38;25.15;;;;;;;9.95;63.25;101107.78;5041108;28;20128;-70
2020/12/16 10:49:42;;;;;;;33.85;22.73;;;;;;;10.00;63.83;101111.34;5040980;28;20072;-70
2020/12/16 10:52:11;;;;;;;33.40;23.23;;;;;;;10.12;63.52;101112.31;5043183;28;20076;-71
2020/12/16 10:54:37;;;;;;;34.15;22.92;;;;;;;10.22;63.60;101108.84;5044354;28;20124;-70
2020/12/16 10:57:03;;;;;;;34.05;23.58;;;;;;;10.22;63.31;101108.84;5042547;28;20067;-70
2020/12/16 10:59:29;;;;;;;36.72;24.42;;;;;;;10.35;63.40;101110.69;5039427;28;20476;-70
2020/12/16 11:01:58;;;;;;;34.30;24.10;;;;;;;10.49;62.56;101102.81;5030219;28;20124;-70
2020/12/16 11:04:24;;;;;;;35.10;24.88;;;;;;;10.77;62.52;101108.16;5067032;28;20033;-70
2020/12/16 11:06:50;;;;;;;36.40;24.40;;;;;;;10.94;61.47;101104.66;5052287;28;20047;-70
2020/12/16 11:09:17;;;;;;;32.15;23.80;;;;;;;11.01;61.30;101109.97;5063123;28;20028;-70
2020/12/16 11:11:47;;;;;;;38.60;24.45;;;;;;;11.19;60.75;101112.63;5061159;28;20253;-70
2020/12/16 11:14:13;;;;;;;34.15;24.25;;;;;;;11.25;60.84;101104.69;5067829;28;20372;-70
2020/12/16 11:16:40;;;;;;;33.80;24.73;;;;;;;11.20;61.00;101109.09;5043993;28;20044;-70
2020/12/16 11:19:06;;;;;;;31.05;23.63;;;;;;;11.15;60.93;101111.72;5041695;28;20514;-69
2020/12/16 11:21:42;;;;;;;32.42;23.77;;;;;;;11.06;61.18;101108.22;5040340;28;20037;-70
2020/12/16 11:24:09;;;;;;;34.75;24.40;;;;;;;11.00;61.12;101105.56;5041604;28;20037;-70
2020/12/16 11:26:39;;;;;;;36.13;26.30;;;;;;;10.92;61.60;101106.41;5037319;28;20040;-70
2020/12/16 11:29:08;;;;;;;41.20;29.35;;;;;;;10.86;62.19;101098.50;5041980;28;20034;-70